Terminal Aerodrome Forecast
Issued by NWS

Home | Current Version | Previous Version | Text Only | Print | Product List | Glossary On
Versions: 1 2 3 4 5 6 7 8 9 10 11 12 13 14 15 16
000
FTUS43 KDMX 232321
TAFOTM
TAF
KOTM 232321Z 2400/2424 12017G23KT P6SM -SHRA SCT060 BKN100 OVC120
     FM241100 14016G22KT 6SM TSRA SCT020 OVC040CB
     FM241600 16014G24KT 5SM -SHRA SCT020 OVC035
     FM242100 25011KT P6SM VCSH BKN020 BKN035=

USA.gov is the U.S. government's official web portal to all federal, state and local government web resources and services.